Time;durP1;ratioP1;P1;durP2;ratioP2;P2;SDS_P1;SDS_P2;PMS_P1;PMS_P2;Temp;Humidity;BMP_temperature;BMP_pressure;BME280_temperature;BME280_humidity;BME280_pressure;Samples;Min_cycle;Max_cycle;Signal;HPM_P1;HPM_P2
2023/12/13 00:01:51;;;;;;;13.68;7.85;;;5.20;99.90;;;;;;5021991;28;20689;-60
2023/12/13 00:04:17;;;;;;;16.35;8.85;;;5.20;99.90;;;;;;5019000;28;20619;-60
2023/12/13 00:06:42;;;;;;;12.43;8.02;;;5.10;99.90;;;;;;5022505;28;20033;-61
2023/12/13 00:09:08;;;;;;;13.70;7.43;;;5.10;99.90;;;;;;5017510;28;20045;-61
2023/12/13 00:11:34;;;;;;;12.48;7.97;;;5.10;99.90;;;;;;5020902;28;20466;-60
2023/12/13 00:13:59;;;;;;;14.55;7.72;;;5.10;99.90;;;;;;5020100;28;20033;-60
2023/12/13 00:16:25;;;;;;;13.25;7.47;;;5.10;99.90;;;;;;5023093;28;20025;-60
2023/12/13 00:18:51;;;;;;;10.98;6.68;;;5.10;99.90;;;;;;5021936;28;20064;-58
2023/12/13 00:21:17;;;;;;;10.15;7.38;;;5.10;99.90;;;;;;5020875;28;20025;-62
2023/12/13 00:23:43;;;;;;;13.10;7.15;;;5.10;99.90;;;;;;5021820;28;20056;-58
2023/12/13 00:26:16;;;;;;;11.95;6.57;;;5.10;99.90;;;;;;5016567;28;20057;-57
2023/12/13 00:28:43;;;;;;;9.57;7.18;;;5.10;99.90;;;;;;5017823;28;20029;-59
2023/12/13 00:31:10;;;;;;;9.13;6.45;;;5.10;99.90;;;;;;5020554;28;20430;-60
2023/12/13 00:33:35;;;;;;;10.45;6.88;;;5.10;99.90;;;;;;5018280;28;20112;-61
2023/12/13 00:36:02;;;;;;;10.98;7.38;;;5.10;99.90;;;;;;5019457;28;20572;-59
2023/12/13 00:38:27;;;;;;;13.75;7.55;;;5.10;99.90;;;;;;5020892;28;20839;-60
2023/12/13 00:40:53;;;;;;;11.13;7.35;;;5.10;99.90;;;;;;5020264;28;20111;-61
2023/12/13 00:43:18;;;;;;;14.57;7.78;;;5.10;99.90;;;;;;5021481;28;20060;-61
2023/12/13 00:45:44;;;;;;;11.23;6.85;;;5.00;99.90;;;;;;5017977;28;20077;-58
2023/12/13 00:48:09;;;;;;;11.82;6.93;;;5.00;99.90;;;;;;5020863;28;20119;-60
2023/12/13 00:50:35;;;;;;;10.65;6.70;;;5.00;99.90;;;;;;5016264;28;20482;-61
2023/12/13 00:53:00;;;;;;;10.52;6.30;;;5.00;99.90;;;;;;5020954;28;20057;-60
2023/12/13 00:55:26;;;;;;;11.75;6.85;;;5.00;99.90;;;;;;5019943;28;20088;-62
2023/12/13 00:57:52;;;;;;;11.65;6.60;;;5.00;99.90;;;;;;5017069;28;20041;-58
2023/12/13 01:00:18;;;;;;;10.57;6.35;;;5.00;99.90;;;;;;5020425;28;20375;-58
2023/12/13 01:02:43;;;;;;;9.63;5.55;;;5.00;99.90;;;;;;5020611;28;20088;-59
2023/12/13 01:05:09;;;;;;;8.85;6.20;;;5.00;99.90;;;;;;5018195;28;20144;-60
2023/12/13 01:07:34;;;;;;;11.10;6.15;;;5.00;99.90;;;;;;5019820;28;20405;-63
2023/12/13 01:10:00;;;;;;;8.93;5.90;;;5.00;99.90;;;;;;5019290;28;20025;-62
2023/12/13 01:12:26;;;;;;;8.40;6.32;;;4.90;99.90;;;;;;5020600;28;20109;-63
2023/12/13 01:14:52;;;;;;;9.02;5.65;;;4.90;99.90;;;;;;5017344;28;20021;-61
2023/12/13 01:17:18;;;;;;;11.13;5.90;;;4.90;99.90;;;;;;5017566;28;20120;-62
2023/12/13 01:19:43;;;;;;;12.77;5.95;;;4.90;99.90;;;;;;5020731;28;20117;-61
2023/12/13 01:22:09;;;;;;;9.25;5.85;;;4.90;99.90;;;;;;5020092;28;20091;-64
2023/12/13 01:24:34;;;;;;;12.20;6.35;;;4.90;99.90;;;;;;5019248;28;20088;-63
2023/12/13 01:27:00;;;;;;;7.80;5.18;;;4.90;99.90;;;;;;5019085;28;20079;-63
2023/12/13 01:29:25;;;;;;;10.68;5.80;;;4.80;99.90;;;;;;5020480;28;20040;-60
2023/12/13 01:31:51;;;;;;;8.70;5.72;;;4.80;99.90;;;;;;5020511;28;20440;-63
2023/12/13 01:34:16;;;;;;;8.10;5.55;;;4.80;99.90;;;;;;5013185;28;20104;-61
2023/12/13 01:36:42;;;;;;;9.70;5.05;;;4.80;99.90;;;;;;5014989;28;20529;-62
2023/12/13 01:39:08;;;;;;;9.05;5.13;;;4.80;99.90;;;;;;5021727;28;20083;-60
2023/12/13 01:41:33;;;;;;;12.95;5.80;;;4.80;99.90;;;;;;5017077;28;20529;-62
2023/12/13 01:43:59;;;;;;;8.23;4.45;;;4.80;99.90;;;;;;5019208;28;20034;-63
2023/12/13 01:46:25;;;;;;;9.25;5.05;;;4.80;99.90;;;;;;5017883;28;20084;-62
2023/12/13 01:48:51;;;;;;;6.47;4.55;;;4.80;99.90;;;;;;5020328;28;20477;-61
2023/12/13 01:51:17;;;;;;;7.90;4.55;;;4.70;99.90;;;;;;5016485;28;20049;-64
2023/12/13 01:53:43;;;;;;;6.68;4.15;;;4.70;99.90;;;;;;5015855;28;20021;-63
2023/12/13 01:56:11;;;;;;;6.55;4.10;;;4.70;99.90;;;;;;5016337;28;20088;-66
2023/12/13 01:58:38;;;;;;;6.40;4.20;;;4.70;99.90;;;;;;5018601;28;20033;-62
2023/12/13 02:01:07;;;;;;;7.05;4.43;;;4.70;99.90;;;;;;5019758;28;20522;-63
2023/12/13 02:03:33;;;;;;;5.85;4.07;;;4.70;99.90;;;;;;5014231;28;20033;-65
2023/12/13 02:06:00;;;;;;;5.40;3.83;;;4.70;99.90;;;;;;5016533;28;20045;-64
2023/12/13 02:08:26;;;;;;;6.07;3.92;;;4.70;99.90;;;;;;5018707;28;20137;-65
2023/12/13 02:10:52;;;;;;;5.40;3.45;;;4.70;99.90;;;;;;5018002;28;20464;-63
2023/12/13 02:13:18;;;;;;;4.80;3.80;;;4.60;99.90;;;;;;5017981;28;20681;-63
2023/12/13 02:15:44;;;;;;;5.05;3.83;;;4.60;99.90;;;;;;5018057;28;20042;-65
2023/12/13 02:18:10;;;;;;;5.88;3.95;;;4.60;99.90;;;;;;5019801;28;20498;-63
2023/12/13 02:20:36;;;;;;;5.75;3.55;;;4.60;99.90;;;;;;5018154;28;20045;-62
2023/12/13 02:23:05;;;;;;;5.25;3.22;;;4.60;99.90;;;;;;5019111;28;20037;-63
2023/12/13 02:25:56;;;;;;;5.85;3.83;;;4.60;99.90;;;;;;5017534;28;20245;-62
2023/12/13 02:28:24;;;;;;;5.53;3.85;;;4.60;99.90;;;;;;5017451;28;20418;-63
2023/12/13 02:30:53;;;;;;;5.40;3.33;;;4.50;99.90;;;;;;5015719;28;20045;-63
2023/12/13 02:33:26;;;;;;;3.85;3.00;;;4.60;99.90;;;;;;5016300;28;20040;-64
2023/12/13 02:35:53;;;;;;;7.70;3.63;;;4.50;99.90;;;;;;5016632;28;20030;-64
2023/12/13 02:38:19;;;;;;;5.93;3.28;;;4.50;99.90;;;;;;5019067;28;20525;-62
2023/12/13 02:40:44;;;;;;;3.67;3.10;;;4.50;99.90;;;;;;5015265;28;20303;-60
2023/12/13 02:43:10;;;;;;;4.63;3.47;;;4.50;99.90;;;;;;5016385;28;20536;-62
2023/12/13 02:45:35;;;;;;;4.43;3.05;;;4.40;99.90;;;;;;5017880;28;20029;-63
2023/12/13 02:48:01;;;;;;;4.60;2.92;;;4.50;99.90;;;;;;5017659;28;20505;-59
2023/12/13 02:50:26;;;;;;;5.75;3.67;;;4.40;99.90;;;;;;5018144;28;20068;-60
2023/12/13 02:52:52;;;;;;;4.03;3.28;;;4.40;99.90;;;;;;5016432;28;20029;-61
2023/12/13 02:55:17;;;;;;;5.65;3.53;;;4.40;99.90;;;;;;5016128;28;20033;-63
2023/12/13 02:57:43;;;;;;;4.20;3.10;;;4.40;99.90;;;;;;5016838;28;20037;-61
2023/12/13 03:00:09;;;;;;;3.63;3.03;;;4.40;99.90;;;;;;5018823;28;20033;-61
2023/12/13 03:02:35;;;;;;;4.97;3.53;;;4.40;99.90;;;;;;5012608;28;20029;-60
2023/12/13 03:05:01;;;;;;;4.95;3.17;;;4.40;99.90;;;;;;5013767;28;20038;-62
2023/12/13 03:07:28;;;;;;;3.13;2.72;;;4.40;99.90;;;;;;5014134;28;20889;-62
2023/12/13 03:09:54;;;;;;;5.38;3.30;;;4.50;99.90;;;;;;5017497;28;20101;-63
2023/12/13 03:12:19;;;;;;;6.80;3.50;;;4.40;99.90;;;;;;5018707;28;20104;-58
2023/12/13 03:14:45;;;;;;;4.35;2.92;;;4.40;99.90;;;;;;5021127;28;20053;-59
2023/12/13 03:17:11;;;;;;;3.65;2.88;;;4.40;99.90;;;;;;5022991;28;20036;-55
2023/12/13 03:19:36;;;;;;;4.35;3.50;;;4.40;99.90;;;;;;5020928;28;20116;-60
2023/12/13 03:22:02;;;;;;;3.58;2.70;;;4.40;99.90;;;;;;5022949;28;20500;-63
2023/12/13 03:24:28;;;;;;;7.40;3.75;;;4.40;99.90;;;;;;5017580;28;20455;-62
2023/12/13 03:26:54;;;;;;;3.60;3.00;;;4.40;99.90;;;;;;5023767;28;20040;-62
2023/12/13 03:29:19;;;;;;;4.90;3.45;;;4.40;99.90;;;;;;5021581;28;20034;-62
2023/12/13 03:31:45;;;;;;;4.30;3.60;;;4.40;99.90;;;;;;5020638;28;20111;-62
2023/12/13 03:34:11;;;;;;;3.70;3.15;;;4.40;99.90;;;;;;5023825;28;20030;-62
2023/12/13 03:36:36;;;;;;;6.00;3.28;;;4.40;99.90;;;;;;5023339;28;20120;-65
2023/12/13 03:39:02;;;;;;;4.78;3.50;;;4.40;99.90;;;;;;5023987;28;20025;-62
2023/12/13 03:41:28;;;;;;;4.40;3.15;;;4.40;99.90;;;;;;5020299;28;20176;-62
2023/12/13 03:43:53;;;;;;;6.25;3.08;;;4.40;99.90;;;;;;5023016;28;20116;-64
2023/12/13 03:46:21;;;;;;;4.47;3.58;;;4.40;99.90;;;;;;5018999;28;20038;-61
2023/12/13 03:48:46;;;;;;;4.35;3.22;;;4.40;99.90;;;;;;5021538;28;20030;-62
2023/12/13 03:51:12;;;;;;;4.38;3.50;;;4.40;99.90;;;;;;5020924;28;20033;-62
2023/12/13 03:53:39;;;;;;;4.57;3.20;;;4.40;99.90;;;;;;5021331;28;20406;-62
2023/12/13 03:56:05;;;;;;;4.88;3.13;;;4.40;99.90;;;;;;5023334;28;20067;-62
2023/12/13 03:58:31;;;;;;;7.50;3.60;;;4.40;99.90;;;;;;5021370;28;20482;-62
2023/12/13 04:00:59;;;;;;;6.32;4.15;;;4.40;99.90;;;;;;5021209;28;20054;-62
2023/12/13 04:03:24;;;;;;;7.15;3.97;;;4.40;99.90;;;;;;5018546;28;20037;-63
2023/12/13 04:05:50;;;;;;;6.57;4.00;;;4.40;99.90;;;;;;5023318;28;20215;-62
2023/12/13 04:08:15;;;;;;;5.03;4.18;;;4.40;99.90;;;;;;5020968;28;20107;-60
2023/12/13 04:10:41;;;;;;;8.70;4.28;;;4.40;99.90;;;;;;5019447;28;20021;-62
2023/12/13 04:13:07;;;;;;;3.92;3.22;;;4.40;99.90;;;;;;5021151;28;20704;-64
2023/12/13 04:15:32;;;;;;;6.90;3.70;;;4.30;99.90;;;;;;5021667;28;20029;-61
2023/12/13 04:17:58;;;;;;;4.10;3.55;;;4.30;99.90;;;;;;5014869;28;20083;-60
2023/12/13 04:20:23;;;;;;;4.60;3.78;;;4.40;99.90;;;;;;5023092;28;20033;-61
2023/12/13 04:22:49;;;;;;;4.05;3.00;;;4.40;99.90;;;;;;5021074;28;20038;-61
2023/12/13 04:25:15;;;;;;;4.68;3.45;;;4.30;99.90;;;;;;5018656;28;20029;-64
2023/12/13 04:27:40;;;;;;;5.63;3.88;;;4.40;99.90;;;;;;5029848;22;20300;31
2023/12/13 04:30:06;;;;;;;5.68;3.70;;;4.40;99.90;;;;;;5007409;28;20829;-86
2023/12/13 04:32:32;;;;;;;5.45;3.72;;;4.40;99.90;;;;;;4993535;28;20030;-84
2023/12/13 04:34:58;;;;;;;7.38;3.47;;;4.40;99.90;;;;;;4991327;28;20117;-85
2023/12/13 04:37:24;;;;;;;6.55;3.85;;;4.40;99.90;;;;;;4992491;28;20034;-85
2023/12/13 04:39:49;;;;;;;8.10;4.30;;;4.30;99.90;;;;;;4987479;28;20023;-86
2023/12/13 04:42:15;;;;;;;7.95;3.88;;;4.30;99.90;;;;;;4990848;28;20527;-85
2023/12/13 04:44:41;;;;;;;4.57;3.45;;;4.30;99.90;;;;;;5003367;28;20021;-85
2023/12/13 04:47:06;;;;;;;4.57;3.45;;;4.30;99.90;;;;;;4991459;28;20037;-84
2023/12/13 04:49:32;;;;;;;5.53;3.63;;;4.30;99.90;;;;;;4983326;28;20045;-85
2023/12/13 04:51:58;;;;;;;4.57;3.70;;;4.30;99.90;;;;;;4980779;28;20023;-85
2023/12/13 04:54:23;;;;;;;5.72;3.78;;;4.30;99.90;;;;;;4983368;28;20026;-87
2023/12/13 04:56:49;;;;;;;6.63;4.03;;;4.30;99.90;;;;;;4984345;28;20026;-85
2023/12/13 04:59:14;;;;;;;5.35;3.50;;;4.30;99.90;;;;;;4985627;28;20046;-85
2023/12/13 05:01:40;;;;;;;5.82;3.75;;;4.30;99.90;;;;;;4992462;28;20216;-85
2023/12/13 05:04:05;;;;;;;5.35;3.67;;;4.30;99.90;;;;;;4990292;28;20039;-85
2023/12/13 05:06:31;;;;;;;5.95;4.20;;;4.30;99.90;;;;;;4995687;28;20082;-85
2023/12/13 05:08:56;;;;;;;6.95;3.67;;;4.30;99.90;;;;;;4989671;28;20040;-85
2023/12/13 05:11:22;;;;;;;5.47;3.65;;;4.30;99.90;;;;;;4990135;28;20034;-86
2023/12/13 05:13:47;;;;;;;7.05;4.40;;;4.30;99.90;;;;;;4985923;28;20394;-85
2023/12/13 05:16:13;;;;;;;5.40;3.65;;;4.30;99.90;;;;;;4990501;28;20542;-85
2023/12/13 05:18:38;;;;;;;6.80;3.88;;;4.30;99.90;;;;;;4991823;28;20038;-84
2023/12/13 05:21:04;;;;;;;5.18;3.45;;;4.30;99.90;;;;;;4985689;28;20084;-85
2023/12/13 05:23:30;;;;;;;5.53;4.18;;;4.30;99.90;;;;;;4986413;28;20038;-85
2023/12/13 05:25:56;;;;;;;5.63;3.67;;;4.30;99.90;;;;;;4986911;28;20038;-85
2023/12/13 05:28:21;;;;;;;5.78;3.58;;;4.30;99.90;;;;;;4989992;28;20049;-86
2023/12/13 05:30:47;;;;;;;4.45;3.30;;;4.30;99.90;;;;;;4987412;28;20033;-86
2023/12/13 05:33:12;;;;;;;5.93;3.05;;;4.30;99.90;;;;;;4983429;28;20109;-85
2023/12/13 05:35:38;;;;;;;4.72;3.08;;;4.30;99.90;;;;;;4984849;28;20026;-85
2023/12/13 05:38:04;;;;;;;6.25;3.90;;;4.30;99.90;;;;;;4982205;28;20030;-85
2023/12/13 05:40:31;;;;;;;4.93;3.58;;;4.30;99.90;;;;;;5010574;28;20076;-86
2023/12/13 05:42:57;;;;;;;4.68;3.05;;;4.30;99.90;;;;;;5002573;28;20030;-86
2023/12/13 05:45:22;;;;;;;6.50;3.78;;;4.30;99.90;;;;;;4995673;28;20109;-86
2023/12/13 05:47:48;;;;;;;7.72;3.97;;;4.30;99.90;;;;;;4994826;28;20039;-85
2023/12/13 05:50:15;;;;;;;6.10;3.47;;;4.30;99.90;;;;;;4994983;28;20026;-85
2023/12/13 05:52:41;;;;;;;6.40;3.83;;;4.30;99.90;;;;;;4993694;28;20792;-86
2023/12/13 05:55:07;;;;;;;5.22;3.55;;;4.30;99.90;;;;;;4988334;28;20034;-85
2023/12/13 05:57:33;;;;;;;5.53;3.90;;;4.30;99.90;;;;;;4993237;28;20448;-86
2023/12/13 05:59:58;;;;;;;5.88;4.05;;;4.20;99.90;;;;;;4992437;28;20022;-86
2023/12/13 06:02:24;;;;;;;5.80;4.03;;;4.20;99.90;;;;;;4991724;28;20043;-85
2023/12/13 06:04:51;;;;;;;7.10;3.80;;;4.20;99.90;;;;;;4994217;28;20033;-86
2023/12/13 06:07:17;;;;;;;7.00;4.38;;;4.20;99.90;;;;;;4990302;28;20030;-85
2023/12/13 06:09:42;;;;;;;7.13;4.40;;;4.20;99.90;;;;;;4995990;28;20077;-85
2023/12/13 06:12:08;;;;;;;6.72;4.25;;;4.20;99.90;;;;;;4986381;28;20027;-86
2023/12/13 06:14:34;;;;;;;8.70;5.05;;;4.20;99.90;;;;;;4990648;28;20038;-86
2023/12/13 06:16:59;;;;;;;5.50;3.78;;;4.20;99.90;;;;;;4986854;28;20019;-85
2023/12/13 06:19:27;;;;;;;7.10;4.47;;;4.20;99.90;;;;;;4990486;28;20117;-85
2023/12/13 06:21:53;;;;;;;8.45;4.38;;;4.20;99.90;;;;;;4991626;28;20034;-85
2023/12/13 06:24:18;;;;;;;8.02;4.22;;;4.20;99.90;;;;;;4987061;28;20093;-85
2023/12/13 06:26:44;;;;;;;7.03;4.32;;;4.20;99.90;;;;;;4987257;28;20125;-86
2023/12/13 06:29:11;;;;;;;8.38;4.45;;;4.20;99.90;;;;;;4984479;28;20026;-86
2023/12/13 06:31:37;;;;;;;9.93;4.85;;;4.20;99.90;;;;;;4981322;28;20030;-85
2023/12/13 06:34:02;;;;;;;6.10;4.32;;;4.20;99.90;;;;;;4984166;28;20018;-85
2023/12/13 06:36:29;;;;;;;10.43;4.90;;;4.20;99.90;;;;;;4989260;28;20018;-86
2023/12/13 06:38:54;;;;;;;8.10;4.38;;;4.20;99.90;;;;;;4987458;28;20676;-87
2023/12/13 06:41:20;;;;;;;8.35;4.63;;;4.20;99.90;;;;;;4985478;28;20113;-86
2023/12/13 06:43:47;;;;;;;7.75;4.38;;;4.20;99.90;;;;;;4987484;28;20438;-85
2023/12/13 06:46:13;;;;;;;10.57;4.88;;;4.20;99.90;;;;;;4980418;28;20996;-86
2023/12/13 06:48:38;;;;;;;9.00;4.90;;;4.20;99.90;;;;;;4984792;28;20113;-86
2023/12/13 06:51:04;;;;;;;6.50;4.43;;;4.20;99.90;;;;;;4985629;28;20788;-85
2023/12/13 06:53:30;;;;;;;5.63;4.03;;;4.20;99.90;;;;;;4999352;28;20081;-85
2023/12/13 06:55:57;;;;;;;5.30;3.78;;;4.20;99.90;;;;;;4993126;28;20015;-85
2023/12/13 06:58:22;;;;;;;5.57;4.15;;;4.20;99.90;;;;;;4992946;28;20049;-84
2023/12/13 07:00:48;;;;;;;6.28;4.18;;;4.20;99.90;;;;;;4989957;28;20500;-85
2023/12/13 07:03:13;;;;;;;8.07;4.78;;;4.20;99.90;;;;;;4993133;28;20105;-84
2023/12/13 07:05:39;;;;;;;5.75;4.22;;;4.10;99.90;;;;;;4992800;28;20091;-85
2023/12/13 07:08:05;;;;;;;7.00;4.50;;;4.10;99.90;;;;;;4992832;28;20033;-84
2023/12/13 07:10:30;;;;;;;7.45;4.38;;;4.10;99.90;;;;;;4986960;28;20034;-85
2023/12/13 07:12:56;;;;;;;7.13;5.10;;;4.10;99.90;;;;;;4989510;28;20429;-84
2023/12/13 07:15:21;;;;;;;9.40;5.38;;;4.10;99.90;;;;;;4991457;28;20053;-85
2023/12/13 07:17:47;;;;;;;7.53;4.57;;;4.10;99.90;;;;;;4989598;28;20057;-84
2023/12/13 07:20:12;;;;;;;6.30;4.30;;;4.10;99.90;;;;;;4988763;28;20053;-85
2023/12/13 07:22:39;;;;;;;6.38;4.57;;;4.10;99.90;;;;;;4993296;28;20092;-85
2023/12/13 07:25:06;;;;;;;6.63;4.25;;;4.10;99.90;;;;;;4989766;28;20058;-84
2023/12/13 07:27:33;;;;;;;7.63;4.65;;;4.10;99.90;;;;;;4988221;28;20030;-84
2023/12/13 07:29:59;;;;;;;6.72;5.00;;;4.10;99.90;;;;;;4984591;28;20082;-85
2023/12/13 07:32:24;;;;;;;7.15;4.45;;;4.10;99.90;;;;;;4989534;28;20018;-85
2023/12/13 07:34:50;;;;;;;7.90;4.82;;;4.10;99.90;;;;;;4991001;28;20022;-85
2023/12/13 07:37:16;;;;;;;6.00;4.68;;;4.00;99.90;;;;;;5003233;28;20400;-85
2023/12/13 07:39:42;;;;;;;5.90;4.40;;;4.00;99.90;;;;;;4991612;28;20023;-85
2023/12/13 07:42:08;;;;;;;5.88;3.90;;;4.00;99.90;;;;;;4985848;28;20028;-84
2023/12/13 07:44:33;;;;;;;6.65;4.43;;;4.00;99.90;;;;;;4985269;28;20113;-85
2023/12/13 07:46:59;;;;;;;5.78;4.55;;;4.00;99.90;;;;;;4990771;28;20038;-86
2023/12/13 07:49:28;;;;;;;5.20;4.10;;;4.10;99.90;;;;;;4989025;28;20022;-85
2023/12/13 07:51:55;;;;;;;7.07;4.60;;;4.10;99.90;;;;;;4997633;28;20811;-84
2023/12/13 07:54:21;;;;;;;6.93;4.20;;;4.00;99.90;;;;;;4991014;28;20034;-85
2023/12/13 07:56:49;;;;;;;10.35;5.13;;;4.00;99.90;;;;;;4996584;28;20085;-86
2023/12/13 07:59:15;;;;;;;7.78;4.88;;;4.10;99.90;;;;;;4992301;28;20113;-84
2023/12/13 08:01:41;;;;;;;6.55;4.72;;;4.10;99.90;;;;;;4991949;28;20114;-85
2023/12/13 08:04:07;;;;;;;8.43;4.85;;;4.10;99.90;;;;;;4989734;28;20446;-84
2023/12/13 08:06:33;;;;;;;8.20;4.70;;;4.10;99.90;;;;;;4988718;28;20438;-84
2023/12/13 08:08:59;;;;;;;7.63;5.25;;;4.00;99.90;;;;;;4994088;28;20049;-86
2023/12/13 08:11:24;;;;;;;7.65;4.35;;;4.00;99.90;;;;;;4992252;28;20479;-85
2023/12/13 08:13:50;;;;;;;10.95;5.97;;;4.00;99.90;;;;;;5001364;28;20017;-87
2023/12/13 08:16:15;;;;;;;7.15;4.57;;;4.00;99.90;;;;;;5011669;28;20026;-86
2023/12/13 08:18:41;;;;;;;7.50;5.07;;;4.10;99.90;;;;;;5004464;28;20073;-84
2023/12/13 08:21:07;;;;;;;6.15;4.43;;;4.00;99.90;;;;;;4988327;28;20031;-84
2023/12/13 08:23:33;;;;;;;7.32;4.90;;;4.00;99.90;;;;;;4982166;28;20022;-84
2023/12/13 08:25:59;;;;;;;8.18;4.85;;;4.00;99.90;;;;;;5007743;28;20018;-87
2023/12/13 08:28:24;;;;;;;7.45;5.40;;;4.00;99.90;;;;;;5007285;28;20111;-86
2023/12/13 08:30:50;;;;;;;6.38;4.80;;;4.00;99.90;;;;;;4991184;28;20117;-86
2023/12/13 08:33:16;;;;;;;7.28;4.85;;;4.00;99.90;;;;;;4993748;28;20065;-84
2023/12/13 08:35:41;;;;;;;8.52;4.95;;;4.10;99.90;;;;;;4989981;28;20553;-85
2023/12/13 08:38:09;;;;;;;9.15;4.93;;;4.10;99.90;;;;;;4989271;28;20113;-86
2023/12/13 08:40:35;;;;;;;7.28;5.60;;;4.10;99.90;;;;;;4990783;28;20045;-86
2023/12/13 08:43:01;;;;;;;12.02;5.25;;;4.10;99.90;;;;;;4993573;28;20034;-85
2023/12/13 08:45:26;;;;;;;10.80;5.20;;;4.10;99.90;;;;;;4986852;28;20077;-86
2023/12/13 08:47:52;;;;;;;8.90;5.45;;;4.10;99.90;;;;;;4987208;28;20054;-85
2023/12/13 08:50:17;;;;;;;9.73;5.00;;;4.10;99.90;;;;;;4992465;28;20036;-86
2023/12/13 08:52:43;;;;;;;8.88;5.38;;;4.10;99.90;;;;;;4992837;28;20030;-85
2023/12/13 08:55:09;;;;;;;6.60;5.03;;;4.10;99.90;;;;;;4996431;28;20017;-86
2023/12/13 08:57:34;;;;;;;8.35;5.47;;;4.10;99.90;;;;;;4992268;28;20029;-86
2023/12/13 09:00:00;;;;;;;11.35;5.70;;;4.10;99.90;;;;;;4988618;28;20520;-86
2023/12/13 09:02:26;;;;;;;8.38;5.40;;;4.10;99.90;;;;;;4987893;28;20041;-85
2023/12/13 09:04:52;;;;;;;10.00;5.20;;;4.10;99.90;;;;;;4994108;28;20389;-85
2023/12/13 09:07:18;;;;;;;5.95;4.35;;;4.10;99.90;;;;;;4985112;28;20061;-84
2023/12/13 09:09:44;;;;;;;11.55;6.07;;;4.10;99.90;;;;;;4984691;28;20101;-85
2023/12/13 09:12:12;;;;;;;8.27;5.07;;;4.20;99.90;;;;;;4982760;28;20026;-85
2023/12/13 09:14:38;;;;;;;8.68;5.38;;;4.10;99.90;;;;;;4985090;28;20015;-85
2023/12/13 09:17:03;;;;;;;8.18;5.22;;;4.10;99.90;;;;;;4984961;28;20072;-85
2023/12/13 09:19:29;;;;;;;7.63;4.60;;;4.10;99.90;;;;;;4986215;28;20034;-84
2023/12/13 09:21:54;;;;;;;8.35;4.68;;;4.10;99.90;;;;;;4986128;28;20030;-85
2023/12/13 09:24:21;;;;;;;8.38;4.90;;;4.10;99.90;;;;;;4981023;28;20537;-85
2023/12/13 09:26:47;;;;;;;11.23;5.43;;;4.10;99.90;;;;;;4985807;28;20546;-85
2023/12/13 09:29:13;;;;;;;8.82;4.80;;;4.10;99.90;;;;;;4984337;28;20519;-86
2023/12/13 09:31:38;;;;;;;11.32;5.72;;;4.20;99.90;;;;;;4984061;28;20019;-84
2023/12/13 09:34:05;;;;;;;8.30;4.78;;;4.10;99.90;;;;;;4984502;28;20052;-85
2023/12/13 09:36:30;;;;;;;6.40;4.72;;;4.20;99.90;;;;;;4983115;28;20034;-85
2023/12/13 09:38:56;;;;;;;9.07;4.28;;;4.20;99.90;;;;;;4988286;28;20092;-85
2023/12/13 09:41:30;;;;;;;7.47;5.35;;;4.20;99.90;;;;;;4987867;28;20053;-85
2023/12/13 09:43:57;;;;;;;6.32;4.82;;;4.20;99.90;;;;;;4987962;28;20113;-85
2023/12/13 09:46:24;;;;;;;5.65;4.13;;;4.10;99.90;;;;;;4988054;28;20045;-86
2023/12/13 09:48:50;;;;;;;6.80;4.45;;;4.10;99.90;;;;;;4984510;28;20806;-85
2023/12/13 09:51:19;;;;;;;7.25;4.53;;;4.10;99.90;;;;;;4984595;28;20482;-85
2023/12/13 09:53:49;;;;;;;8.80;5.10;;;4.10;99.90;;;;;;4984702;28;20026;-85
2023/12/13 09:56:15;;;;;;;6.85;4.88;;;4.10;99.90;;;;;;4987195;28;20089;-86
2023/12/13 09:58:40;;;;;;;8.07;5.47;;;4.10;99.90;;;;;;4983511;28;20030;-85
2023/12/13 10:01:10;;;;;;;8.02;5.00;;;4.20;99.90;;;;;;4987741;28;20034;-86
2023/12/13 10:03:38;;;;;;;6.82;4.85;;;4.20;99.90;;;;;;4990623;28;20409;-85
2023/12/13 10:06:06;;;;;;;10.52;4.78;;;4.20;99.90;;;;;;4991279;28;20142;-86
2023/12/13 10:08:31;;;;;;;6.93;4.75;;;4.20;99.90;;;;;;4983427;28;20608;-85
2023/12/13 10:10:57;;;;;;;9.23;4.43;;;4.20;99.90;;;;;;5002311;28;20118;-87
2023/12/13 10:13:23;;;;;;;5.65;4.32;;;4.20;99.90;;;;;;4982653;28;20038;-85
2023/12/13 10:15:48;;;;;;;7.32;5.00;;;4.20;99.90;;;;;;4985772;28;20073;-85
2023/12/13 10:18:16;;;;;;;5.45;3.97;;;4.20;99.90;;;;;;4986903;28;20030;-84
2023/12/13 10:20:41;;;;;;;8.02;4.55;;;4.20;99.90;;;;;;4982798;28;20057;-85
2023/12/13 10:23:07;;;;;;;5.38;3.92;;;4.20;99.90;;;;;;4982077;28;20565;-84
2023/12/13 10:25:36;;;;;;;8.05;4.47;;;4.20;99.90;;;;;;4983757;28;20085;-85
2023/12/13 10:28:04;;;;;;;5.75;3.75;;;4.20;99.90;;;;;;4987467;28;20038;-85
2023/12/13 10:30:29;;;;;;;5.45;4.32;;;4.20;99.90;;;;;;4983544;28;20684;-85
2023/12/13 10:32:55;;;;;;;5.57;4.28;;;4.20;99.90;;;;;;4986534;28;20037;-84
2023/12/13 10:35:22;;;;;;;5.55;4.13;;;4.20;99.90;;;;;;4989559;28;20026;-88
2023/12/13 10:37:48;;;;;;;5.75;3.92;;;4.20;99.90;;;;;;4984191;28;20027;-84
2023/12/13 10:40:57;;;;;;;5.03;4.03;;;4.20;99.90;;;;;;4983470;28;20026;-86
2023/12/13 10:43:37;;;;;;;4.97;3.33;;;4.20;99.90;;;;;;4972383;28;20034;-85
2023/12/13 10:46:35;;;;;;;3.78;3.05;;;4.20;99.90;;;;;;4985565;28;20402;-85
2023/12/13 10:49:05;;;;;;;6.30;3.97;;;4.10;99.90;;;;;;4990558;28;20030;-84
2023/12/13 10:52:04;;;;;;;6.43;3.45;;;4.10;99.90;;;;;;5005199;28;20034;-84
2023/12/13 10:54:41;;;;;;;4.30;3.20;;;4.20;99.90;;;;;;4998742;28;20514;-85
2023/12/13 10:57:07;;;;;;;6.03;3.60;;;4.10;99.90;;;;;;4987670;28;20097;-86
2023/12/13 10:59:36;;;;;;;4.60;3.20;;;4.10;99.90;;;;;;4984788;28;20100;-84
2023/12/13 11:02:03;;;;;;;5.20;3.30;;;4.10;99.90;;;;;;4987375;28;20026;-85
2023/12/13 11:04:29;;;;;;;3.85;2.97;;;4.10;99.90;;;;;;4987301;28;20030;-85
2023/12/13 11:07:02;;;;;;;6.90;3.13;;;4.10;99.90;;;;;;4987768;28;20022;-85
2023/12/13 11:09:30;;;;;;;4.18;3.10;;;4.10;99.90;;;;;;4986412;28;20034;-85
2023/12/13 11:11:58;;;;;;;3.85;3.15;;;4.10;99.90;;;;;;4979100;28;20030;-84
2023/12/13 11:14:26;;;;;;;4.63;2.58;;;4.20;99.90;;;;;;4988571;28;20027;-84
2023/12/13 11:16:52;;;;;;;5.30;2.97;;;4.20;99.90;;;;;;4985170;28;20026;-86
2023/12/13 11:19:22;;;;;;;4.05;2.63;;;4.10;99.90;;;;;;5002330;28;20042;-86
2023/12/13 11:21:49;;;;;;;3.97;3.08;;;4.10;99.90;;;;;;5005244;28;20068;-85
2023/12/13 11:24:20;;;;;;;4.53;3.00;;;4.10;99.90;;;;;;4993268;28;20111;-85
2023/12/13 11:26:50;;;;;;;4.28;3.00;;;4.10;99.90;;;;;;4985201;28;20030;-86
2023/12/13 11:29:22;;;;;;;3.30;2.90;;;4.10;99.90;;;;;;4992795;28;20033;-86
2023/12/13 11:31:56;;;;;;;5.53;2.70;;;4.10;99.90;;;;;;4994980;28;20401;-85
2023/12/13 11:34:39;;;;;;;3.03;2.58;;;4.10;99.90;;;;;;4992473;28;20026;-85
2023/12/13 11:37:08;;;;;;;4.70;2.85;;;4.10;99.90;;;;;;4998278;28;20605;-85
2023/12/13 11:39:36;;;;;;;4.25;2.80;;;4.10;99.90;;;;;;4995135;28;20520;-85
2023/12/13 11:42:03;;;;;;;5.82;2.80;;;4.20;99.90;;;;;;4996939;28;20062;-86
2023/12/13 11:44:30;;;;;;;5.60;3.10;;;4.20;99.90;;;;;;5012587;28;20046;-87
2023/12/13 11:46:57;;;;;;;4.35;3.00;;;4.10;99.90;;;;;;5003316;28;20437;-85
2023/12/13 11:49:24;;;;;;;7.53;3.28;;;4.20;99.90;;;;;;4991149;28;20477;-84
2023/12/13 11:51:50;;;;;;;2.97;2.72;;;4.10;99.90;;;;;;4991197;28;20033;-86
2023/12/13 11:54:16;;;;;;;4.00;2.13;;;4.10;99.90;;;;;;4986427;28;20027;-84
2023/12/13 11:56:43;;;;;;;4.07;2.40;;;4.10;99.90;;;;;;4991762;28;20032;-84
2023/12/13 11:59:09;;;;;;;3.95;2.85;;;4.10;99.90;;;;;;4992291;28;20038;-84
2023/12/13 12:01:35;;;;;;;3.75;2.80;;;4.10;99.90;;;;;;4989546;28;20037;-84
2023/12/13 12:04:01;;;;;;;4.97;2.75;;;4.20;99.90;;;;;;4989437;28;20026;-85
2023/12/13 12:06:26;;;;;;;3.20;2.70;;;4.20;99.90;;;;;;4989860;28;20042;-84
2023/12/13 12:08:52;;;;;;;3.22;2.88;;;4.20;99.90;;;;;;4992754;28;20585;-84
2023/12/13 12:11:24;;;;;;;2.80;2.33;;;4.10;99.90;;;;;;4989138;28;20058;-83
2023/12/13 12:13:52;;;;;;;3.95;2.75;;;4.10;99.90;;;;;;4985656;28;20053;-84
2023/12/13 12:16:19;;;;;;;2.97;2.67;;;4.10;99.90;;;;;;4981970;28;20035;-84
2023/12/13 12:18:45;;;;;;;3.05;2.45;;;4.10;99.90;;;;;;4986483;28;20026;-84
2023/12/13 12:21:11;;;;;;;4.95;3.15;;;4.10;99.90;;;;;;4989409;28;20041;-84
2023/12/13 12:23:43;;;;;;;3.22;2.28;;;4.10;99.90;;;;;;4992929;28;20022;-85
2023/12/13 12:26:10;;;;;;;2.42;2.20;;;4.10;99.90;;;;;;4991577;28;20041;-84
2023/12/13 12:28:38;;;;;;;6.03;2.30;;;4.10;99.90;;;;;;4982480;28;20077;-84
2023/12/13 12:31:03;;;;;;;3.05;2.40;;;4.10;99.90;;;;;;4991096;28;20486;-83
2023/12/13 12:33:29;;;;;;;5.45;2.53;;;4.10;99.90;;;;;;4989091;28;20037;-86
2023/12/13 12:35:57;;;;;;;3.17;2.28;;;4.10;99.90;;;;;;4991419;28;20591;-83
2023/12/13 12:38:23;;;;;;;4.18;2.70;;;4.10;99.90;;;;;;4987923;28;20129;-84
2023/12/13 12:40:49;;;;;;;2.25;1.98;;;4.00;99.90;;;;;;4987234;28;20089;-84
2023/12/13 12:43:19;;;;;;;2.65;2.15;;;4.10;99.90;;;;;;4990399;28;20042;-84
2023/12/13 12:45:46;;;;;;;4.38;2.25;;;4.10;99.90;;;;;;4988021;28;20034;-86
2023/12/13 12:48:12;;;;;;;3.28;2.13;;;4.00;99.90;;;;;;4990580;28;20503;-84
2023/12/13 12:50:38;;;;;;;4.82;2.55;;;4.00;99.90;;;;;;4984527;28;20931;-84
2023/12/13 12:53:04;;;;;;;3.65;2.10;;;3.90;99.90;;;;;;4991980;28;20029;-84